Time;durP1;ratioP1;P1;durP2;ratioP2;P2;SDS_P1;SDS_P2;PMS_P1;PMS_P2;Temp;Humidity;BMP_temperature;BMP_pressure;BME280_temperature;BME280_humidity;BME280_pressure;Samples;Min_cycle;Max_cycle;Signal;HPM_P1;HPM_P2
2021/06/02 00:01:55;;;;;;;5.32;3.83;;;15.60;99.90;;;;;;5031101;28;20021;-69
2021/06/02 00:04:27;;;;;;;4.43;3.72;;;15.50;99.90;;;;;;5032030;28;20032;-69
2021/06/02 00:07:02;;;;;;;5.30;3.53;;;15.60;99.90;;;;;;5031150;28;20405;-70
2021/06/02 00:09:31;;;;;;;4.28;3.80;;;15.70;99.90;;;;;;5011196;28;20037;-69
2021/06/02 00:12:02;;;;;;;5.82;3.60;;;15.80;99.90;;;;;;5012518;28;20030;-70
2021/06/02 00:14:28;;;;;;;;;;;15.70;99.90;;;;;;5012820;28;20427;-70
2021/06/02 00:16:55;;;;;;;6.35;3.65;;;15.80;99.90;;;;;;5011439;28;19996;-69
2021/06/02 00:19:26;;;;;;;4.63;3.40;;;15.70;99.90;;;;;;5012182;28;20360;-68
2021/06/02 00:21:55;;;;;;;4.45;4.00;;;15.70;99.90;;;;;;5011746;28;20041;-68
2021/06/02 00:24:22;;;;;;;4.85;3.60;;;15.70;99.90;;;;;;5012084;28;20087;-68
2021/06/02 00:26:51;;;;;;;4.07;3.40;;;15.70;99.90;;;;;;5011938;28;20189;-68
2021/06/02 00:29:24;;;;;;;4.78;3.72;;;15.60;99.90;;;;;;5012072;28;20018;-68
2021/06/02 00:31:53;;;;;;;6.60;3.63;;;15.70;99.90;;;;;;5011930;28;20018;-68
2021/06/02 00:34:19;;;;;;;4.53;3.85;;;15.80;99.90;;;;;;5016068;28;20034;-69
2021/06/02 00:36:45;;;;;;;5.43;3.70;;;15.70;99.90;;;;;;5011870;28;20030;-68
2021/06/02 00:39:12;;;;;;;5.68;3.88;;;15.50;99.90;;;;;;5012026;28;20537;-68
2021/06/02 00:41:39;;;;;;;4.10;3.67;;;15.50;99.90;;;;;;5011968;28;20033;-68
2021/06/02 00:44:07;;;;;;;4.93;4.03;;;15.50;99.90;;;;;;5011617;28;20030;-68
2021/06/02 00:46:36;;;;;;;5.35;3.58;;;15.40;99.90;;;;;;5011743;28;20633;-69
2021/06/02 00:49:07;;;;;;;5.43;3.38;;;15.40;99.90;;;;;;5011780;28;20026;-69
2021/06/02 00:51:38;;;;;;;;;;;15.40;99.90;;;;;;5012140;28;20018;-68
2021/06/02 00:54:10;;;;;;;4.72;3.58;;;15.50;99.90;;;;;;5011711;28;19951;-69
2021/06/02 00:56:35;;;;;;;6.28;3.80;;;15.40;99.90;;;;;;5011646;28;20417;-69
2021/06/02 00:59:04;;;;;;;5.72;3.63;;;15.40;99.90;;;;;;5011410;28;20100;-69
2021/06/02 01:01:36;;;;;;;5.93;3.92;;;15.40;99.90;;;;;;5011057;28;20034;-68
2021/06/02 01:04:05;;;;;;;5.78;3.83;;;15.40;99.90;;;;;;5011307;28;20420;-69
2021/06/02 01:06:34;;;;;;;6.57;4.30;;;15.40;99.90;;;;;;5011422;28;20026;-68
2021/06/02 01:09:07;;;;;;;8.60;3.78;;;15.50;99.90;;;;;;5010284;28;20018;-69
2021/06/02 01:11:35;;;;;;;4.97;4.03;;;15.50;99.90;;;;;;5011525;28;20018;-69
2021/06/02 01:14:03;;;;;;;5.43;3.72;;;15.50;99.90;;;;;;5011269;28;20451;-69
2021/06/02 01:16:37;;;;;;;6.60;3.70;;;15.40;99.90;;;;;;5011442;28;20140;-69
2021/06/02 01:19:03;;;;;;;5.82;4.88;;;15.30;99.90;;;;;;5011193;28;20029;-69
2021/06/02 01:21:33;;;;;;;5.68;3.53;;;15.30;99.90;;;;;;5011067;28;20026;-68
2021/06/02 01:24:00;;;;;;;9.20;5.28;;;15.10;99.90;;;;;;5011074;28;20316;-69
2021/06/02 01:26:31;;;;;;;5.25;4.00;;;15.00;99.90;;;;;;5011409;28;20026;-69
2021/06/02 01:29:01;;;;;;;6.75;4.28;;;15.00;99.90;;;;;;5010286;28;20034;-69
2021/06/02 01:32:07;;;;;;;5.47;4.00;;;15.00;99.90;;;;;;5011327;28;20113;-69
2021/06/02 01:35:09;;;;;;;6.03;4.07;;;15.00;99.90;;;;;;5011175;28;20026;-69
2021/06/02 01:38:12;;;;;;;5.85;4.00;;;14.90;99.90;;;;;;5009983;28;20179;-69
2021/06/02 01:41:02;;;;;;;4.82;3.72;;;14.90;99.90;;;;;;5009973;28;20038;-69
2021/06/02 01:43:55;;;;;;;8.57;4.30;;;14.90;99.90;;;;;;5011070;28;20105;-69
2021/06/02 01:46:48;;;;;;;9.05;3.95;;;14.80;99.90;;;;;;5011217;28;20033;-69
2021/06/02 01:49:25;;;;;;;6.65;3.85;;;14.70;99.90;;;;;;5010760;28;20152;-69
2021/06/02 01:52:15;;;;;;;8.75;3.85;;;14.70;99.90;;;;;;5011098;28;20109;-69
2021/06/02 01:55:26;;;;;;;4.88;3.75;;;14.80;99.90;;;;;;5010587;28;20030;-69
2021/06/02 01:58:10;;;;;;;4.88;3.78;;;14.60;99.90;;;;;;4987000;28;20133;-69
2021/06/02 02:00:59;;;;;;;6.10;3.40;;;14.70;99.90;;;;;;5010996;28;20084;-69
2021/06/02 02:03:45;;;;;;;6.32;3.90;;;14.60;99.90;;;;;;5011187;28;20080;-69
2021/06/02 02:06:41;;;;;;;5.90;4.28;;;14.60;99.90;;;;;;5026322;28;20022;-70
2021/06/02 02:09:15;;;;;;;6.45;3.80;;;14.40;99.90;;;;;;5026671;28;20034;-68
2021/06/02 02:11:43;;;;;;;4.15;3.75;;;14.40;99.90;;;;;;5011037;28;20049;-69
2021/06/02 02:14:45;;;;;;;4.93;3.72;;;14.50;99.90;;;;;;5022576;28;20363;-69
2021/06/02 02:17:37;;;;;;;5.68;3.88;;;14.60;99.90;;;;;;5014590;28;20026;-69
2021/06/02 02:20:25;;;;;;;6.65;4.05;;;14.60;99.90;;;;;;5013367;28;20085;-69
2021/06/02 02:23:17;;;;;;;5.25;4.32;;;14.60;99.90;;;;;;5012849;28;20049;-68
2021/06/02 02:26:20;;;;;;;5.68;3.88;;;14.40;99.90;;;;;;5014265;28;20444;-68
2021/06/02 02:29:14;;;;;;;7.28;4.22;;;14.30;99.90;;;;;;5013182;28;20044;-69
2021/06/02 02:31:51;;;;;;;4.40;3.40;;;14.20;99.90;;;;;;5014356;28;20037;-69
2021/06/02 02:34:57;;;;;;;3.95;3.53;;;14.10;99.90;;;;;;5013959;28;20029;-69
2021/06/02 02:37:47;;;;;;;4.43;4.00;;;13.90;99.90;;;;;;5014031;28;20033;-69
2021/06/02 02:40:35;;;;;;;5.07;4.57;;;13.80;99.90;;;;;;5013829;28;20586;-68
2021/06/02 02:43:29;;;;;;;4.70;4.00;;;13.80;99.90;;;;;;5013861;28;20044;-69
2021/06/02 02:46:24;;;;;;;5.70;3.90;;;13.70;99.90;;;;;;4994249;28;20101;-69
2021/06/02 02:49:28;;;;;;;5.78;4.75;;;13.80;99.90;;;;;;4994285;28;20084;-68
2021/06/02 02:52:23;;;;;;;5.10;4.18;;;13.90;99.90;;;;;;4994199;28;20485;-69
2021/06/02 02:55:20;;;;;;;5.38;4.55;;;13.90;99.90;;;;;;4994143;28;20436;-69
2021/06/02 02:58:43;;;;;;;6.50;4.15;;;13.90;99.90;;;;;;4993313;28;20049;-69
2021/06/02 03:01:26;;;;;;;7.03;4.05;;;13.90;99.90;;;;;;4972188;28;20062;-69
2021/06/02 03:04:18;;;;;;;6.35;4.80;;;13.90;99.90;;;;;;4983782;28;20030;-68
2021/06/02 03:06:59;;;;;;;6.18;4.95;;;13.90;99.90;;;;;;4991010;28;20106;-69
2021/06/02 03:09:45;;;;;;;6.07;4.40;;;13.80;99.90;;;;;;4991104;28;20022;-68
2021/06/02 03:12:29;;;;;;;7.50;4.95;;;13.80;99.90;;;;;;4991276;28;20485;-69
2021/06/02 03:15:04;;;;;;;10.23;4.85;;;13.80;99.90;;;;;;4975171;28;20148;-69
2021/06/02 03:17:35;;;;;;;6.28;4.90;;;13.70;99.90;;;;;;4991137;28;20356;-69
2021/06/02 03:20:14;;;;;;;;;;;13.60;99.90;;;;;;4992835;28;20450;-69
2021/06/02 03:22:57;;;;;;;9.35;4.72;;;13.40;99.90;;;;;;4991737;28;20422;-68
2021/06/02 03:25:36;;;;;;;5.43;4.68;;;13.50;99.90;;;;;;4991725;28;20048;-79
2021/06/02 03:28:25;;;;;;;6.20;4.93;;;13.50;99.90;;;;;;4991742;28;20091;-77
2021/06/02 03:31:05;;;;;;;5.60;4.57;;;13.40;99.90;;;;;;4992690;28;20041;-77
2021/06/02 03:34:04;;;;;;;5.85;4.55;;;13.50;99.90;;;;;;5013581;28;20029;-77
2021/06/02 03:36:33;;;;;;;5.97;5.05;;;13.50;99.90;;;;;;5029013;28;20038;-78
2021/06/02 03:39:20;;;;;;;7.47;4.57;;;13.40;99.90;;;;;;5013430;28;20034;-78
2021/06/02 03:42:36;;;;;;;6.38;4.80;;;13.50;99.90;;;;;;5013428;28;20032;-78
2021/06/02 03:45:35;;;;;;;9.38;5.18;;;13.30;99.90;;;;;;4991103;28;20042;-78
2021/06/02 03:48:00;;;;;;;8.77;5.25;;;13.30;99.90;;;;;;4991330;28;20098;-78
2021/06/02 03:50:41;;;;;;;6.22;4.68;;;13.50;99.90;;;;;;4974893;28;20088;-78
2021/06/02 03:53:34;;;;;;;7.18;5.38;;;13.60;99.90;;;;;;4991446;28;20426;-78
2021/06/02 03:56:25;;;;;;;5.80;4.97;;;13.40;99.90;;;;;;4991137;28;20125;-80
2021/06/02 03:59:05;;;;;;;10.60;4.95;;;13.50;99.90;;;;;;4990967;28;20125;-78
2021/06/02 04:01:53;;;;;;;9.07;4.72;;;13.50;99.90;;;;;;4990976;28;20030;-78
2021/06/02 04:04:24;;;;;;;9.55;4.88;;;13.60;99.90;;;;;;4974485;28;20041;-78
2021/06/02 04:07:07;;;;;;;5.50;4.50;;;13.60;99.90;;;;;;4974830;28;20098;-78
2021/06/02 04:09:44;;;;;;;7.63;5.13;;;13.60;99.90;;;;;;4974436;28;20030;-78
2021/06/02 04:12:21;;;;;;;7.35;4.63;;;13.60;99.90;;;;;;4990809;28;20109;-78
2021/06/02 04:14:57;;;;;;;7.65;4.82;;;13.60;99.90;;;;;;4990659;28;20062;-78
2021/06/02 04:17:25;;;;;;;8.93;4.80;;;13.60;99.90;;;;;;4993032;28;20026;-78
2021/06/02 04:19:52;;;;;;;7.07;5.03;;;13.70;99.90;;;;;;4992911;28;20045;-78
2021/06/02 04:22:19;;;;;;;10.18;4.82;;;13.70;99.90;;;;;;4992661;28;20357;-79
2021/06/02 04:24:46;;;;;;;8.93;5.38;;;13.80;99.90;;;;;;4992707;28;20057;-78
2021/06/02 04:27:17;;;;;;;8.85;5.00;;;13.80;99.90;;;;;;4992741;28;20034;-79
2021/06/02 04:29:52;;;;;;;9.82;4.82;;;13.80;99.90;;;;;;4992834;28;20026;-78
2021/06/02 04:32:18;;;;;;;5.80;5.03;;;13.80;99.90;;;;;;4992738;28;20022;-79
2021/06/02 04:34:45;;;;;;;5.88;4.47;;;13.80;99.90;;;;;;4992646;28;20034;-72
2021/06/02 04:37:11;;;;;;;6.00;5.40;;;13.90;99.90;;;;;;5004105;28;20380;-68
2021/06/02 04:39:40;;;;;;;6.55;4.65;;;14.00;99.90;;;;;;5011894;28;20048;-70
2021/06/02 04:42:10;;;;;;;6.38;4.38;;;14.00;99.90;;;;;;5011999;28;20459;-69
2021/06/02 04:44:38;;;;;;;8.90;4.55;;;14.10;99.90;;;;;;5011860;28;20140;-69
2021/06/02 04:47:05;;;;;;;10.15;4.75;;;14.20;99.90;;;;;;5011908;28;20030;-69
2021/06/02 04:50:03;;;;;;;7.22;4.63;;;14.20;99.90;;;;;;5011913;28;20022;-70
2021/06/02 04:53:04;;;;;;;7.28;4.50;;;14.30;99.90;;;;;;5012092;28;20033;-70
2021/06/02 04:55:48;;;;;;;8.02;4.68;;;14.40;99.90;;;;;;5012060;28;20102;-70
2021/06/02 04:58:37;;;;;;;7.32;5.00;;;14.50;99.90;;;;;;5011844;28;20028;-70
2021/06/02 05:01:34;;;;;;;6.63;4.90;;;14.50;99.90;;;;;;5011803;28;20045;-70
2021/06/02 05:04:18;;;;;;;8.55;4.85;;;14.50;99.90;;;;;;4988567;28;20034;-69
2021/06/02 05:07:05;;;;;;;7.35;4.57;;;14.70;99.90;;;;;;5010772;28;20033;-70
2021/06/02 05:09:55;;;;;;;6.78;4.00;;;14.80;99.90;;;;;;5011229;28;20076;-71
2021/06/02 05:12:44;;;;;;;6.82;4.10;;;14.90;99.90;;;;;;5011646;28;20018;-71
2021/06/02 05:15:40;;;;;;;6.57;4.55;;;14.90;99.90;;;;;;5011822;28;20467;-69
2021/06/02 05:18:26;;;;;;;8.85;5.20;;;15.00;99.90;;;;;;5011959;28;20041;-70
2021/06/02 05:24:01;;;;;;;6.30;4.22;;;15.10;99.90;;;;;;5011700;28;20352;-67
2021/06/02 05:26:56;;;;;;;6.45;4.45;;;15.20;99.90;;;;;;5011599;28;20029;-67
2021/06/02 05:30:01;;;;;;;5.22;3.88;;;15.30;99.90;;;;;;5011347;28;20025;-67
2021/06/02 05:33:13;;;;;;;6.38;4.18;;;15.40;99.90;;;;;;5018737;28;20045;-66
2021/06/02 05:36:10;;;;;;;4.45;3.75;;;15.50;99.90;;;;;;4996921;28;20037;-66
2021/06/02 05:39:22;;;;;;;4.60;4.18;;;15.60;99.90;;;;;;5031207;28;20034;-67
2021/06/02 05:42:27;;;;;;;5.03;3.90;;;15.80;99.90;;;;;;5021176;28;20048;-66
2021/06/02 05:45:14;;;;;;;6.32;4.05;;;15.80;99.90;;;;;;5019245;28;20029;-67
2021/06/02 05:47:49;;;;;;;7.45;4.38;;;16.00;99.90;;;;;;5011472;28;20021;-67
2021/06/02 05:50:41;;;;;;;9.85;4.28;;;16.10;99.90;;;;;;5014872;28;20442;-67
2021/06/02 05:53:25;;;;;;;5.43;3.80;;;16.30;99.90;;;;;;5015018;28;20022;-66
2021/06/02 05:56:04;;;;;;;9.35;4.93;;;16.40;99.90;;;;;;5014792;28;20022;-66
2021/06/02 05:59:03;;;;;;;12.65;4.00;;;16.40;99.90;;;;;;5015160;28;20096;-67
2021/06/02 06:02:15;;;;;;;10.48;3.58;;;16.60;99.90;;;;;;5014825;28;20041;-67
2021/06/02 06:05:18;;;;;;;6.18;3.70;;;16.80;99.90;;;;;;5013115;28;20030;-68
2021/06/02 06:08:18;;;;;;;5.43;3.92;;;16.90;99.80;;;;;;5030339;28;20026;-65
2021/06/02 06:11:17;;;;;;;5.13;3.83;;;17.00;99.90;;;;;;5014789;28;20117;-64
2021/06/02 06:14:09;;;;;;;5.68;3.78;;;17.20;99.80;;;;;;5014778;28;20026;-65
2021/06/02 06:17:09;;;;;;;9.02;3.38;;;17.40;99.10;;;;;;5008856;28;20033;-65
2021/06/02 06:19:59;;;;;;;7.95;3.70;;;17.40;98.40;;;;;;5011975;28;20117;-64
2021/06/02 06:22:27;;;;;;;5.57;3.30;;;17.50;98.10;;;;;;5013489;28;20128;-69
2021/06/02 06:25:12;;;;;;;6.30;4.07;;;17.50;97.90;;;;;;5013646;28;20047;-72
2021/06/02 06:27:55;;;;;;;9.18;4.50;;;17.60;98.10;;;;;;5013999;28;20029;-73
2021/06/02 06:30:41;;;;;;;4.47;3.67;;;17.80;98.00;;;;;;5014087;28;20539;-69
2021/06/02 06:33:10;;;;;;;5.28;4.18;;;17.90;97.80;;;;;;5013035;28;20101;-67
2021/06/02 06:35:38;;;;;;;5.35;3.88;;;18.20;97.50;;;;;;5014481;28;20029;-68
2021/06/02 06:38:12;;;;;;;6.75;3.95;;;18.40;97.00;;;;;;5013922;28;20013;-69
2021/06/02 06:40:39;;;;;;;6.38;3.95;;;18.50;96.70;;;;;;5013182;28;20118;-68
2021/06/02 06:43:06;;;;;;;6.05;4.05;;;18.50;96.30;;;;;;5014402;28;20014;-68
2021/06/02 06:45:38;;;;;;;5.60;3.83;;;19.10;95.80;;;;;;5014209;28;20033;-68
2021/06/02 06:48:14;;;;;;;5.85;3.78;;;20.00;94.30;;;;;;5014064;28;20061;-68
2021/06/02 06:50:44;;;;;;;4.43;3.22;;;20.60;92.70;;;;;;5013825;28;20083;-67
2021/06/02 06:53:11;;;;;;;5.03;3.55;;;21.20;91.40;;;;;;4996761;28;20026;-67
2021/06/02 06:55:38;;;;;;;6.53;3.95;;;21.80;89.80;;;;;;5013279;28;20042;-68
2021/06/02 06:58:05;;;;;;;5.80;3.97;;;22.50;87.60;;;;;;5029338;28;20125;-69
2021/06/02 07:00:32;;;;;;;5.68;3.65;;;23.20;84.60;;;;;;5013141;28;20014;-68
2021/06/02 07:02:58;;;;;;;4.28;3.35;;;23.50;80.70;;;;;;5013869;28;20111;-69
2021/06/02 07:05:26;;;;;;;5.53;3.72;;;24.10;77.00;;;;;;5013969;28;20022;-69
2021/06/02 07:07:55;;;;;;;4.95;3.50;;;24.30;75.00;;;;;;5014014;28;20359;-69
2021/06/02 07:10:22;;;;;;;5.75;3.20;;;23.90;74.10;;;;;;5013885;28;20033;-69
2021/06/02 07:12:49;;;;;;;4.47;3.05;;;24.10;73.80;;;;;;5013725;28;20041;-69
2021/06/02 07:15:16;;;;;;;5.00;3.20;;;24.50;72.90;;;;;;5013233;28;20033;-68
2021/06/02 07:17:48;;;;;;;3.97;3.58;;;24.60;72.90;;;;;;5013763;28;20032;-69
2021/06/02 07:20:19;;;;;;;5.50;3.80;;;25.30;71.00;;;;;;5013588;28;20141;-69
2021/06/02 07:22:47;;;;;;;7.13;3.35;;;25.40;70.30;;;;;;5012979;28;20498;-69
2021/06/02 07:25:20;;;;;;;3.35;3.05;;;26.00;67.30;;;;;;5013430;28;20075;-70
2021/06/02 07:27:47;;;;;;;3.75;3.35;;;26.60;66.40;;;;;;5013449;28;20168;-69
2021/06/02 07:30:17;;;;;;;10.20;3.65;;;26.70;66.10;;;;;;4998556;28;20112;-68
2021/06/02 07:32:45;;;;;;;7.93;3.17;;;27.50;63.60;;;;;;5016536;28;20022;-70
2021/06/02 07:35:14;;;;;;;5.18;3.15;;;28.00;62.10;;;;;;5013479;28;20034;-70
2021/06/02 07:37:39;;;;;;;6.75;3.33;;;27.60;61.60;;;;;;5013155;28;20436;-68
2021/06/02 07:40:08;;;;;;;3.83;3.05;;;27.60;60.70;;;;;;5013043;28;20105;-68
2021/06/02 07:42:34;;;;;;;6.22;3.20;;;27.30;60.90;;;;;;5013139;28;20061;-67
2021/06/02 07:45:00;;;;;;;6.50;2.58;;;26.60;61.70;;;;;;5012887;28;20058;-68
2021/06/02 07:47:26;;;;;;;7.22;3.85;;;26.50;62.00;;;;;;5012877;28;20096;-67
2021/06/02 07:49:52;;;;;;;7.03;3.63;;;26.80;61.90;;;;;;5013125;28;20047;-68
2021/06/02 07:52:20;;;;;;;6.28;3.45;;;27.20;61.60;;;;;;5012390;28;20112;-68
2021/06/02 07:54:48;;;;;;;4.47;2.80;;;27.60;61.90;;;;;;5012834;28;20065;-68
2021/06/02 07:57:14;;;;;;;3.97;3.25;;;28.70;58.30;;;;;;5012708;28;20030;-69
2021/06/02 07:59:39;;;;;;;3.92;2.53;;;28.70;57.30;;;;;;5012859;28;20363;-68
2021/06/02 08:02:05;;;;;;;5.75;3.33;;;28.50;57.30;;;;;;5012798;28;20036;-68
2021/06/02 08:04:31;;;;;;;5.63;3.05;;;28.70;56.80;;;;;;5012711;28;20029;-69
2021/06/02 08:06:57;;;;;;;6.28;2.88;;;29.20;57.00;;;;;;5012640;28;20501;-68
2021/06/02 08:09:24;;;;;;;4.93;3.38;;;29.60;55.50;;;;;;5012731;28;20014;-67
2021/06/02 08:11:51;;;;;;;6.82;3.10;;;29.20;56.20;;;;;;5010690;28;20022;-67
2021/06/02 08:14:17;;;;;;;5.30;2.97;;;29.10;56.60;;;;;;5012624;28;20323;-67
2021/06/02 08:16:43;;;;;;;4.25;3.53;;;29.20;55.90;;;;;;5012782;28;20026;-67
2021/06/02 08:19:08;;;;;;;4.75;3.10;;;29.60;55.60;;;;;;5012260;28;20029;-67
2021/06/02 08:21:35;;;;;;;5.22;2.90;;;29.50;55.60;;;;;;5012222;28;20045;-69
2021/06/02 08:24:01;;;;;;;4.43;3.40;;;29.20;54.40;;;;;;5011720;28;20026;-68
2021/06/02 08:26:27;;;;;;;6.53;2.85;;;28.50;56.40;;;;;;5011879;28;20022;-67
2021/06/02 08:28:56;;;;;;;3.13;2.38;;;28.60;56.60;;;;;;5011931;28;20482;-68
2021/06/02 08:31:22;;;;;;;4.40;3.05;;;29.30;55.90;;;;;;5011884;28;20376;-67
2021/06/02 08:33:47;;;;;;;4.22;3.03;;;30.00;54.60;;;;;;5012201;28;20088;-65
2021/06/02 08:36:13;;;;;;;9.32;3.45;;;30.40;53.90;;;;;;5012080;28;20541;-67
2021/06/02 08:38:38;;;;;;;4.00;2.72;;;30.80;52.20;;;;;;5012066;28;20193;-67
2021/06/02 08:41:06;;;;;;;4.95;2.88;;;30.30;52.70;;;;;;5012050;28;20024;-67
2021/06/02 08:43:33;;;;;;;4.88;3.00;;;30.00;53.40;;;;;;5011924;28;20050;-69
2021/06/02 08:46:00;;;;;;;3.05;2.55;;;29.90;52.80;;;;;;5012177;28;20080;-68
2021/06/02 08:48:25;;;;;;;4.90;2.72;;;29.90;52.80;;;;;;5012117;28;20100;-68
2021/06/02 08:50:53;;;;;;;4.00;2.78;;;30.50;52.50;;;;;;5015959;28;20064;-68
2021/06/02 08:53:20;;;;;;;3.45;2.90;;;30.80;51.30;;;;;;5023373;28;20037;-69
2021/06/02 08:55:46;;;;;;;5.95;2.92;;;30.30;52.90;;;;;;5011595;28;20181;-70
2021/06/02 08:58:23;;;;;;;5.82;3.10;;;30.70;52.30;;;;;;5011701;28;20101;-69
2021/06/02 09:00:49;;;;;;;6.50;2.85;;;30.40;51.00;;;;;;5011880;28;20041;-68
2021/06/02 09:03:15;;;;;;;4.15;2.65;;;30.50;52.00;;;;;;5011779;28;20062;-67
2021/06/02 09:05:41;;;;;;;3.97;2.58;;;31.60;51.40;;;;;;5011766;28;20171;-68
2021/06/02 09:08:13;;;;;;;4.25;2.40;;;32.40;50.20;;;;;;5012090;28;20030;-67
2021/06/02 09:10:41;;;;;;;3.88;2.63;;;32.70;48.90;;;;;;5011723;28;20358;-68
2021/06/02 09:13:23;;;;;;;3.30;2.42;;;32.40;48.50;;;;;;5011626;28;20033;-68
2021/06/02 09:15:53;;;;;;;4.53;2.85;;;32.00;49.30;;;;;;5011788;28;20029;-69
2021/06/02 09:18:23;;;;;;;6.18;2.65;;;32.30;48.80;;;;;;5011520;28;20117;-67
2021/06/02 09:20:50;;;;;;;;;;;31.90;49.50;;;;;;5011098;28;20467;-68
2021/06/02 09:23:38;;;;;;;5.07;2.50;;;32.00;48.20;;;;;;5012585;28;19938;-68
2021/06/02 09:26:21;;;;;;;3.60;2.28;;;31.50;48.50;;;;;;5015788;28;20026;-68
2021/06/02 09:29:10;;;;;;;4.15;2.20;;;32.10;48.20;;;;;;5012062;28;20014;-67
2021/06/02 09:31:38;;;;;;;4.53;2.13;;;32.90;46.20;;;;;;5015506;28;20018;-66
2021/06/02 09:34:06;;;;;;;4.13;2.35;;;33.60;45.20;;;;;;5015488;28;20030;-68
2021/06/02 09:36:37;;;;;;;6.60;2.13;;;34.00;45.70;;;;;;5015519;28;20040;-67
2021/06/02 09:39:06;;;;;;;3.33;2.35;;;33.10;45.00;;;;;;5015490;28;20034;-67
2021/06/02 09:41:42;;;;;;;2.47;2.00;;;33.50;45.20;;;;;;5015495;28;20036;-67
2021/06/02 09:44:26;;;;;;;2.38;2.03;;;33.20;44.70;;;;;;5015331;28;20037;-67
2021/06/02 09:47:07;;;;;;;4.70;2.53;;;33.30;43.10;;;;;;5015348;28;20014;-67
2021/06/02 09:49:51;;;;;;;5.05;2.40;;;32.70;43.60;;;;;;5015212;28;20030;-67
2021/06/02 09:52:38;;;;;;;2.42;2.00;;;32.90;42.90;;;;;;5030669;28;20548;-68
2021/06/02 09:55:12;;;;;;;4.85;1.98;;;33.10;41.90;;;;;;5015019;28;20101;-67
2021/06/02 09:57:38;;;;;;;3.00;2.28;;;32.80;42.00;;;;;;5030456;28;20113;-68
2021/06/02 10:00:05;;;;;;;3.42;1.70;;;32.20;42.10;;;;;;5014700;28;20109;-67
2021/06/02 10:02:33;;;;;;;3.63;2.08;;;;;;;;;;5030380;28;20029;-65
2021/06/02 10:05:07;;;;;;;5.82;2.50;;;;;;;;;;5014878;28;20396;-66
2021/06/02 10:07:34;;;;;;;3.30;2.03;;;;;;;;;;5015106;28;20030;-68
2021/06/02 10:10:10;;;;;;;2.80;1.88;;;;;;;;;;5014833;28;20328;-68
2021/06/02 10:12:36;;;;;;;2.42;2.00;;;;;;;;;;5014751;28;20354;-68
2021/06/02 10:15:02;;;;;;;3.90;2.17;;;;;;;;;;5014794;28;20096;-68
2021/06/02 10:17:32;;;;;;;3.28;2.30;;;;;;;;;;5013693;28;20096;-70
2021/06/02 10:20:04;;;;;;;4.70;2.22;;;;;;;;;;5014606;28;20107;-67
2021/06/02 10:22:31;;;;;;;4.43;2.42;;;;;;;;;;5030004;28;20061;-67
2021/06/02 10:25:01;;;;;;;3.50;2.75;;;;;;;;;;5014439;28;20030;-68
2021/06/02 10:27:27;;;;;;;;;;;31.90;42.00;;;;;;5014914;28;20080;-67
2021/06/02 10:29:53;;;;;;;3.38;2.10;;;32.70;42.60;;;;;;5017484;28;19916;-67
2021/06/02 10:32:20;;;;;;;3.72;2.10;;;32.90;43.00;;;;;;5013799;28;20097;-68
2021/06/02 10:34:47;;;;;;;3.33;2.08;;;33.10;43.30;;;;;;5014427;28;20029;-67
2021/06/02 10:37:15;;;;;;;3.75;2.17;;;33.70;42.80;;;;;;5013182;28;20042;-68
2021/06/02 10:39:47;;;;;;;3.75;2.47;;;33.30;40.90;;;;;;5014284;28;20030;-68
2021/06/02 10:42:29;;;;;;;3.50;2.47;;;33.00;42.90;;;;;;5014301;28;20499;-68
2021/06/02 10:45:00;;;;;;;5.40;2.15;;;32.50;42.50;;;;;;5014060;28;20034;-67
2021/06/02 10:47:26;;;;;;;8.65;2.15;;;34.10;42.30;;;;;;5013820;28;20050;-68
2021/06/02 10:49:53;;;;;;;5.15;2.17;;;34.40;40.40;;;;;;5014067;28;20343;-68
2021/06/02 10:52:45;;;;;;;2.42;2.22;;;33.10;41.40;;;;;;5012893;28;20408;-68
2021/06/02 10:55:38;;;;;;;4.30;1.98;;;31.60;42.30;;;;;;5012030;28;20410;-68
2021/06/02 10:58:24;;;;;;;2.58;1.85;;;31.70;43.00;;;;;;5014032;28;20037;-67
2021/06/02 11:01:10;;;;;;;2.10;1.90;;;32.60;42.00;;;;;;5013056;28;20036;-67
2021/06/02 11:03:36;;;;;;;4.97;3.00;;;;;;;;;;5012597;28;20029;-67
2021/06/02 11:06:14;;;;;;;3.53;1.98;;;33.40;41.80;;;;;;5013803;28;20108;-67
2021/06/02 11:08:52;;;;;;;2.97;2.05;;;33.10;41.90;;;;;;5014087;28;20022;-67
2021/06/02 11:11:30;;;;;;;7.60;2.45;;;32.60;42.90;;;;;;5013965;28;20014;-66
2021/06/02 11:14:15;;;;;;;3.85;2.10;;;32.70;41.50;;;;;;5013528;28;20080;-66
2021/06/02 11:16:46;;;;;;;5.53;2.20;;;34.30;41.60;;;;;;5013645;28;20057;-66
2021/06/02 11:19:18;;;;;;;2.55;1.83;;;33.70;41.10;;;;;;5012914;28;20121;-65
2021/06/02 11:21:53;;;;;;;2.75;2.33;;;32.00;42.00;;;;;;5009075;28;20085;-65
2021/06/02 11:24:34;;;;;;;2.13;1.92;;;32.60;41.40;;;;;;5001974;28;20040;-67
2021/06/02 11:27:20;;;;;;;3.45;1.92;;;33.70;41.20;;;;;;5013435;28;20022;-66
2021/06/02 11:29:51;;;;;;;3.08;1.88;;;34.40;40.00;;;;;;5013172;28;20096;-67
2021/06/02 11:32:31;;;;;;;2.72;2.05;;;33.70;40.20;;;;;;5013102;28;20105;-68
2021/06/02 11:34:57;;;;;;;3.03;2.10;;;34.30;40.10;;;;;;5013093;28;20088;-68
2021/06/02 11:37:28;;;;;;;3.20;1.83;;;33.10;41.30;;;;;;5013074;28;20041;-67
2021/06/02 11:39:56;;;;;;;4.18;2.30;;;32.00;41.50;;;;;;5013253;28;20017;-68
2021/06/02 11:42:39;;;;;;;3.92;2.00;;;31.60;41.50;;;;;;5013143;28;20026;-69
2021/06/02 11:45:16;;;;;;;4.63;2.03;;;31.30;41.30;;;;;;5012933;28;20029;-69
2021/06/02 11:47:45;;;;;;;6.35;1.98;;;32.20;40.50;;;;;;5012689;28;20014;-72
2021/06/02 11:50:14;;;;;;;2.53;1.70;;;32.40;39.40;;;;;;5012804;28;20407;-70
2021/06/02 11:52:42;;;;;;;2.00;1.85;;;32.80;39.90;;;;;;5012883;28;20492;-72
2021/06/02 11:55:10;;;;;;;2.03;1.75;;;33.50;39.20;;;;;;5013100;28;20122;-71
2021/06/02 11:57:43;;;;;;;2.63;1.73;;;34.20;38.40;;;;;;5012956;28;20022;-69
2021/06/02 12:00:13;;;;;;;2.40;1.80;;;34.30;38.00;;;;;;5012951;28;20022;-69
2021/06/02 12:02:41;;;;;;;2.78;2.30;;;33.60;39.60;;;;;;5011418;28;20030;-70
2021/06/02 12:05:18;;;;;;;2.05;1.60;;;33.30;39.50;;;;;;5011498;28;20041;-71
2021/06/02 12:07:55;;;;;;;2.13;2.00;;;33.50;38.60;;;;;;5012182;28;20026;-70
2021/06/02 12:10:42;;;;;;;4.63;1.73;;;33.90;38.80;;;;;;5018345;28;20025;-72
2021/06/02 12:13:34;;;;;;;4.68;1.90;;;33.50;38.20;;;;;;5032217;28;20022;-71
2021/06/02 12:16:02;;;;;;;4.50;1.95;;;32.80;39.90;;;;;;5012169;28;20127;-69
2021/06/02 12:18:41;;;;;;;2.38;2.17;;;32.40;38.40;;;;;;5012677;28;20411;-70
2021/06/02 12:21:30;;;;;;;2.97;2.25;;;33.60;39.00;;;;;;5012600;28;20451;-70
2021/06/02 12:23:55;;;;;;;2.72;1.60;;;33.30;37.90;;;;;;5012227;28;20052;-70
2021/06/02 12:26:32;;;;;;;1.98;1.80;;;32.60;39.10;;;;;;5012270;28;20026;-70
2021/06/02 12:29:00;;;;;;;4.07;1.90;;;32.90;38.60;;;;;;5012171;28;20017;-69
2021/06/02 12:31:38;;;;;;;3.83;1.80;;;32.00;39.50;;;;;;5012338;28;20113;-69
2021/06/02 12:34:15;;;;;;;2.97;1.73;;;32.10;39.30;;;;;;5012207;28;20101;-69
2021/06/02 12:36:56;;;;;;;3.13;2.13;;;33.30;37.90;;;;;;5012296;28;20101;-70
2021/06/02 12:39:22;;;;;;;;;;;33.50;39.40;;;;;;5011098;28;20037;-69
2021/06/02 12:41:50;;;;;;;10.35;2.35;;;34.20;38.60;;;;;;5012153;28;19913;-70
2021/06/02 12:44:22;;;;;;;4.35;2.15;;;33.80;39.30;;;;;;5011932;28;20054;-70
2021/06/02 12:47:08;;;;;;;3.35;2.15;;;34.30;39.60;;;;;;5011917;28;20022;-69
2021/06/02 12:49:39;;;;;;;3.90;1.98;;;34.40;38.00;;;;;;5011817;28;20056;-69
2021/06/02 12:52:04;;;;;;;3.35;1.73;;;33.40;39.00;;;;;;5011851;28;20061;-69
2021/06/02 12:54:31;;;;;;;4.05;1.95;;;32.80;38.10;;;;;;5011746;28;20553;-69
2021/06/02 12:56:59;;;;;;;3.13;1.88;;;32.90;38.40;;;;;;5010738;28;20087;-71
2021/06/02 12:59:32;;;;;;;3.15;1.85;;;33.00;38.20;;;;;;5011282;28;20084;-71
2021/06/02 13:02:00;;;;;;;3.47;1.95;;;33.00;38.50;;;;;;5011984;28;20467;-69
2021/06/02 13:04:26;;;;;;;5.40;2.25;;;33.60;38.40;;;;;;5011761;28;20026;-68
2021/06/02 13:06:55;;;;;;;3.63;1.88;;;33.80;37.40;;;;;;5011880;28;20096;-69
2021/06/02 13:09:23;;;;;;;2.50;1.58;;;33.70;38.40;;;;;;5011383;28;20029;-70
2021/06/02 13:11:49;;;;;;;8.00;2.17;;;33.70;37.30;;;;;;5011481;28;20080;-70
2021/06/02 13:14:16;;;;;;;4.57;1.70;;;34.30;36.10;;;;;;5011459;28;20026;-70
2021/06/02 13:16:52;;;;;;;3.63;1.70;;;33.50;36.50;;;;;;5012143;28;20411;-70
2021/06/02 13:19:43;;;;;;;1.85;1.55;;;33.50;37.20;;;;;;5011546;28;20022;-69
2021/06/02 13:22:23;;;;;;;4.38;2.33;;;32.90;38.00;;;;;;5011403;28;20046;-70
2021/06/02 13:24:49;;;;;;;3.00;1.40;;;33.90;36.60;;;;;;5011344;28;20028;-69
2021/06/02 13:27:20;;;;;;;2.08;1.88;;;33.90;36.30;;;;;;5011502;28;20387;-69
2021/06/02 13:29:59;;;;;;;2.00;1.77;;;35.10;36.10;;;;;;5011590;28;20033;-69
2021/06/02 13:32:25;;;;;;;5.13;2.00;;;35.90;35.30;;;;;;5011504;28;20413;-68
2021/06/02 13:34:50;;;;;;;4.20;1.60;;;36.20;36.20;;;;;;5011396;28;20038;-68
2021/06/02 13:37:25;;;;;;;3.55;2.25;;;36.30;35.10;;;;;;5010546;28;20033;-68
2021/06/02 13:40:28;;;;;;;2.00;1.42;;;35.70;35.50;;;;;;5011474;28;20108;-68
2021/06/02 13:42:56;;;;;;;2.97;1.52;;;35.50;34.50;;;;;;4990170;28;20073;-68
2021/06/02 13:45:51;;;;;;;1.70;1.55;;;34.30;35.40;;;;;;5011076;28;20355;-68